»·PEaware :: SKW2922 KJAC-KSLC

SKW2922 :: KJAC-KSLC

FLIGHT INFORMATION

Flight Status: Arrived
Operator:
SkyWest Airlines
More flights by this operator :: More flights under this callsign
Pilot: Skye D. (10623)
Aircraft: CANADAIR CL-600 CRJ-200
(CRJ2)
More flights by this aircraft type
Origin: KJAC Jackson Hole
United States
Destination: KSLC Salt Lake City Intl
United States
More flights between these airports :: More routes between these airports
Route: +ALPIN2 KICNE LHO NORDK5
File this flight plan on PilotEdge
Remarks:
Altitude:
(Current/Filed)
24,000ft
Speed:
(Current/Filed)
408kts
Departed: 03-Feb-18 10:08 AM
Arrived: 03-Feb-18 10:49 AM
Distance/Time
Traveled:
178nm/0:40
Distance/Time
To Go:
Arrived

Flight Plot

Page will automatically refresh every two minutes.

Flight plan parsing failed; only flown route is shown


Map Options




Map Legend


Flown Route
Filed Route
Departure Airport
Arrival Airport
Navaid (VOR, NDB)
Fix

Horizontal Profiles

Position Reports

Time Latitude Longitude Heading Altitude Ground
Speed
03-Feb-18 09:51 43.603131 -110.737349 107 6456ft 0kts
03-Feb-18 09:52 43.603131 -110.737349 107 6456ft 0kts
03-Feb-18 09:53 43.603131 -110.737349 107 6456ft 0kts
03-Feb-18 09:54 43.603131 -110.737349 107 6456ft 0kts
03-Feb-18 09:55 43.603131 -110.737349 107 6456ft 0kts
03-Feb-18 09:56 43.603131 -110.737349 107 6456ft 0kts
03-Feb-18 09:57 43.603131 -110.737349 107 6456ft 0kts
03-Feb-18 09:58 43.603131 -110.737349 107 6456ft 0kts
03-Feb-18 09:59 43.603131 -110.737349 107 6456ft 0kts
03-Feb-18 10:00 43.603131 -110.737349 107 6456ft 0kts
03-Feb-18 10:01 43.603131 -110.737349 107 6456ft 0kts
03-Feb-18 10:02 43.603131 -110.737349 107 6456ft 0kts
03-Feb-18 10:03 43.603131 -110.737349 107 6456ft 0kts
03-Feb-18 10:04 43.603131 -110.737349 107 6456ft 0kts
03-Feb-18 10:05 43.603129 -110.737343 107 6456ft 0kts
03-Feb-18 10:06 43.603205 -110.738077 59 6456ft 2kts
03-Feb-18 10:07 43.603026 -110.738267 19 6456ft 0kts
03-Feb-18 10:08 43.603026 -110.738267 19 6456ft 0kts
03-Feb-18 10:09 43.603026 -110.738267 19 6456ft 0kts
03-Feb-18 10:10 43.605339 -110.737143 19 6456ft 20kts
03-Feb-18 10:11 43.610994 -110.734417 19 6456ft 17kts
03-Feb-18 10:12 43.614666 -110.732625 9 6456ft 0kts
03-Feb-18 10:13 43.614900 -110.732625 332 6456ft 0kts
03-Feb-18 10:14 43.613735 -110.734657 198 6456ft 54kts
03-Feb-18 10:15 43.582759 -110.754555 215 7746ft 152kts
03-Feb-18 10:16 43.548523 -110.775203 206 9387ft 192kts
03-Feb-18 10:17 43.503288 -110.815084 214 10437ft 268kts
03-Feb-18 10:18 43.449437 -110.851103 212 12399ft 294kts
03-Feb-18 10:19 43.378814 -110.893618 212 14483ft 320kts
03-Feb-18 10:20 43.302452 -110.938659 215 16769ft 329kts
03-Feb-18 10:21 43.236574 -110.977446 216 18416ft 340kts
03-Feb-18 10:22 43.167098 -111.026038 221 20015ft 343kts
03-Feb-18 10:23 43.089632 -111.082738 222 21682ft 351kts
03-Feb-18 10:24 43.013409 -111.138418 222 23134ft 358kts
03-Feb-18 10:25 42.931594 -111.198070 221 24191ft 375kts
03-Feb-18 10:26 42.838475 -111.265820 219 24191ft 413kts
03-Feb-18 10:27 42.736708 -111.339278 218 24183ft 435kts
03-Feb-18 10:28 42.635558 -111.412137 218 24185ft 434kts
03-Feb-18 10:29 42.536486 -111.483276 218 24186ft 433kts
03-Feb-18 10:30 42.431632 -111.558292 218 24187ft 433kts
03-Feb-18 10:31 42.326311 -111.633353 218 24208ft 432kts
03-Feb-18 10:32 42.240195 -111.695033 217 24235ft 433kts
03-Feb-18 10:33 42.149366 -111.759413 216 23556ft 426kts
03-Feb-18 10:34 42.063465 -111.820038 216 21990ft 418kts
03-Feb-18 10:35 41.969212 -111.886340 216 20413ft 408kts
03-Feb-18 10:36 41.885913 -111.944756 215 19055ft 399kts
03-Feb-18 10:37 41.813678 -111.995292 215 17882ft 391kts
03-Feb-18 10:38 41.737415 -112.018589 192 16618ft 403kts
03-Feb-18 10:39 41.660327 -112.030554 192 15467ft 395kts
03-Feb-18 10:40 41.576446 -112.043609 192 14903ft 386kts
03-Feb-18 10:41 41.500543 -112.055811 191 14075ft 380kts
03-Feb-18 10:42 41.421381 -112.049069 179 12754ft 371kts
03-Feb-18 10:43 41.328394 -112.037946 180 11986ft 301kts
03-Feb-18 10:44 41.265894 -112.030634 180 11441ft 291kts
03-Feb-18 10:45 41.201895 -112.023104 180 11064ft 284kts
03-Feb-18 10:46 41.149597 -112.012476 162 10998ft 274kts
03-Feb-18 10:47 41.099314 -112.006877 187 10336ft 257kts
03-Feb-18 10:48 41.049214 -112.004502 183 9401ft 199kts
03-Feb-18 10:49 41.004333 -111.999913 181 8267ft 207kts
03-Feb-18 10:50 40.957012 -111.994407 180 7323ft 217kts
03-Feb-18 10:51 40.906238 -111.988431 179 6257ft 181kts
03-Feb-18 10:52 40.865459 -111.983720 177 5405ft 153kts
03-Feb-18 10:53 40.833521 -111.979886 176 4755ft 141kts
03-Feb-18 10:54 40.804630 -111.976620 175 4238ft 139kts
03-Feb-18 10:55 40.792228 -111.975839 260 4232ft 15kts
03-Feb-18 10:56 40.792186 -111.976317 264 4232ft 0kts
03-Feb-18 10:57 40.792186 -111.976317 264 4232ft 0kts
03-Feb-18 10:58 40.790326 -111.977123 173 4232ft 18kts
03-Feb-18 10:59 40.786006 -111.976613 174 4232ft 19kts
03-Feb-18 11:00 40.783927 -111.977522 190 4232ft 9kts
03-Feb-18 11:01 40.783594 -111.977506 175 4232ft 0kts

Navigation Log

Ident Type
Flight plan parsing failed, navigation log unavailable